< < Back
Terminal Aerodrome Forecast


Current Version              Previous Versions:   1  2  3  4  5  6  7  8  9  

Terminal Aerodrome Forecast

721
FTAK31 PAJN 181700
TAFAGS
TAF
PAGS 181725Z 1818/1918 33006KT P6SM -RA OVC035
     FM190300 12011KT 5SM -RA BR SCT015 OVC025
     FM191000 14018G28KT 4SM RA BR BKN015 OVC025
      AMD NOT SKED=



Latest METAR

854
SAUS70 KWBC 182300 RRB
MTRAGS
METAR KAGS 182253Z 29006KT 6SM RA BKN070 OVC095 24/22 A2994 RMK AO2
RAE2158B34 SLP135 P0001 T02440217


USA.gov is the U.S. government's official web portal to all federal, state and local government web resources and services.